Time,TemperatureF,DewpointF,PressureIn,WindDirection,WindDirectionDegrees,WindSpeedMPH,WindSpeedGustMPH,Humidity,HourlyPrecipIn,Conditions,Clouds,dailyrainin,SoftwareType,DateUTC
2013-11-15 00:00:00,44.3,44.3,30.08,WNW,301,0.0,0.0,100,0.00,,,0.00,Wunderground v.1.15,2013-11-15 08:00:00,
2013-11-15 00:10:00,44.5,44.5,30.08,WNW,301,0.0,0.0,100,0.00,,,0.00,Wunderground v.1.15,2013-11-15 08:10:00,
2013-11-15 00:20:00,44.6,44.6,30.08,WNW,301,0.0,0.0,100,0.00,,,0.00,Wunderground v.1.15,2013-11-15 08:20:00,
2013-11-15 00:30:00,44.6,44.6,30.08,WNW,302,0.0,0.0,100,0.00,,,0.00,Wunderground v.1.15,2013-11-15 08:30:00,
2013-11-15 00:40:00,44.7,44.7,30.08,WNW,302,0.0,0.0,100,0.00,,,0.00,Wunderground v.1.15,2013-11-15 08:40:00,
2013-11-15 00:50:00,44.9,44.9,30.08,WNW,302,0.0,0.0,100,0.00,,,0.00,Wunderground v.1.15,2013-11-15 08:50:00,
2013-11-15 00:55:00,45.0,45.0,30.07,WNW,302,0.0,0.0,100,0.00,,,0.00,Wunderground v.1.15,2013-11-15 08:55:00,
2013-11-15 01:00:00,45.0,45.0,30.07,WNW,302,0.0,0.0,100,0.00,,,0.00,Wunderground v.1.15,2013-11-15 09:00:00,
2013-11-15 01:10:00,45.1,45.1,30.07,WNW,302,0.0,0.0,100,0.00,,,0.00,Wunderground v.1.15,2013-11-15 09:10:00,
2013-11-15 01:20:00,45.2,45.2,30.07,WNW,301,0.0,0.0,100,0.00,,,0.00,Wunderground v.1.15,2013-11-15 09:20:00,
2013-11-15 01:30:00,45.3,45.3,30.07,WNW,302,0.0,0.0,100,0.00,,,0.00,Wunderground v.1.15,2013-11-15 09:30:00,
2013-11-15 01:40:00,45.3,45.3,30.07,WNW,302,0.0,0.0,100,0.00,,,0.00,Wunderground v.1.15,2013-11-15 09:40:00,
2013-11-15 01:50:00,45.4,45.4,30.07,WNW,302,0.0,0.0,100,0.00,,,0.00,Wunderground v.1.15,2013-11-15 09:50:00,
2013-11-15 02:00:00,45.4,45.4,30.07,WNW,302,0.0,0.0,100,0.00,,,0.00,Wunderground v.1.15,2013-11-15 10:00:00,
2013-11-15 02:10:00,45.5,45.5,30.07,WNW,302,0.0,0.0,100,0.00,,,0.00,Wunderground v.1.15,2013-11-15 10:10:00,
2013-11-15 02:20:00,45.5,45.5,30.07,WNW,302,0.0,0.0,100,0.00,,,0.00,Wunderground v.1.15,2013-11-15 10:20:00,
2013-11-15 02:25:00,45.5,45.5,30.07,WNW,302,0.0,0.0,100,0.00,,,0.00,Wunderground v.1.15,2013-11-15 10:25:00,
2013-11-15 02:35:00,45.5,45.5,30.07,WNW,302,0.0,0.0,100,0.00,,,0.00,Wunderground v.1.15,2013-11-15 10:35:00,
2013-11-15 02:45:00,45.6,45.6,30.07,WNW,302,0.0,0.0,100,0.00,,,0.00,Wunderground v.1.15,2013-11-15 10:45:00,
2013-11-15 02:55:00,45.6,45.6,30.07,WNW,302,0.0,0.0,100,0.00,,,0.00,Wunderground v.1.15,2013-11-15 10:55:00,
2013-11-15 03:00:00,45.6,45.6,30.06,WNW,302,0.0,0.0,100,0.00,,,0.00,Wunderground v.1.15,2013-11-15 11:00:00,
2013-11-15 03:10:00,45.5,45.5,30.06,WNW,298,0.0,0.0,100,0.00,,,0.00,Wunderground v.1.15,2013-11-15 11:10:00,
2013-11-15 03:20:00,45.5,45.5,30.06,WNW,298,0.0,0.0,100,0.00,,,0.00,Wunderground v.1.15,2013-11-15 11:20:00,
2013-11-15 03:30:00,45.5,45.5,30.06,WNW,298,0.0,0.0,100,0.00,,,0.00,Wunderground v.1.15,2013-11-15 11:30:00,
2013-11-15 03:40:00,45.5,45.5,30.06,ENE,61,0.0,0.0,100,0.00,,,0.00,Wunderground v.1.15,2013-11-15 11:40:00,
2013-11-15 03:50:00,45.4,45.4,30.05,ENE,61,0.0,0.0,100,0.00,,,0.00,Wunderground v.1.15,2013-11-15 11:50:00,
2013-11-15 04:00:00,45.2,45.2,30.05,NW,313,0.0,0.0,100,0.00,,,0.00,Wunderground v.1.15,2013-11-15 12:00:00,
2013-11-15 04:10:00,45.3,45.3,30.06,NW,313,0.0,0.0,100,0.00,,,0.00,Wunderground v.1.15,2013-11-15 12:10:00,
2013-11-15 04:20:00,45.3,45.3,30.06,NW,313,0.0,0.0,100,0.00,,,0.00,Wunderground v.1.15,2013-11-15 12:20:00,
2013-11-15 04:30:00,45.2,45.2,30.06,NW,305,0.0,0.0,100,0.00,,,0.00,Wunderground v.1.15,2013-11-15 12:30:00,
2013-11-15 04:40:00,45.2,45.2,30.06,North,5,0.0,0.0,100,0.00,,,0.00,Wunderground v.1.15,2013-11-15 12:40:00,
2013-11-15 04:50:00,45.2,45.2,30.06,North,5,0.0,0.0,100,0.00,,,0.00,Wunderground v.1.15,2013-11-15 12:50:00,
2013-11-15 04:55:00,45.2,45.2,30.07,NW,308,0.0,0.0,100,0.00,,,0.00,Wunderground v.1.15,2013-11-15 12:55:00,
2013-11-15 05:00:00,45.2,45.2,30.07,NW,313,0.0,1.0,100,0.00,,,0.00,Wunderground v.1.15,2013-11-15 13:00:00,
2013-11-15 05:10:00,45.1,45.1,30.07,NW,321,1.0,1.0,100,0.00,,,0.00,Wunderground v.1.15,2013-11-15 13:10:00,
2013-11-15 05:20:00,45.0,45.0,30.07,NW,321,0.0,0.0,100,0.00,,,0.00,Wunderground v.1.15,2013-11-15 13:20:00,
2013-11-15 05:30:00,44.9,44.9,30.07,NW,321,0.0,1.0,100,0.00,,,0.00,Wunderground v.1.15,2013-11-15 13:30:00,
2013-11-15 05:40:00,44.9,44.9,30.07,NW,321,0.0,0.0,100,0.00,,,0.00,Wunderground v.1.15,2013-11-15 13:40:00,
2013-11-15 05:50:00,44.8,44.8,30.07,NW,321,0.0,0.0,100,0.00,,,0.00,Wunderground v.1.15,2013-11-15 13:50:00,
2013-11-15 06:00:00,44.8,44.8,30.07,NW,321,0.0,0.0,100,0.00,,,0.00,Wunderground v.1.15,2013-11-15 14:00:00,
2013-11-15 06:10:00,44.8,44.8,30.07,NW,321,0.0,0.0,100,0.00,,,0.00,Wunderground v.1.15,2013-11-15 14:10:00,
2013-11-15 06:15:00,44.8,44.8,30.07,NW,321,0.0,0.0,100,0.00,,,0.00,Wunderground v.1.15,2013-11-15 14:15:00,
2013-11-15 06:25:00,44.7,44.7,30.07,NW,321,0.0,0.0,100,0.00,,,0.00,Wunderground v.1.15,2013-11-15 14:25:00,
2013-11-15 06:35:00,44.6,44.6,30.07,NW,321,0.0,0.0,100,0.00,,,0.00,Wunderground v.1.15,2013-11-15 14:35:00,
2013-11-15 06:45:00,44.6,44.6,30.07,NW,321,0.0,0.0,100,0.00,,,0.00,Wunderground v.1.15,2013-11-15 14:45:00,
2013-11-15 06:50:00,44.6,44.6,30.07,NW,321,0.0,0.0,100,0.00,,,0.00,Wunderground v.1.15,2013-11-15 14:50:00,
2013-11-15 07:00:00,44.5,44.5,30.07,NW,321,0.0,0.0,100,0.00,,,0.00,Wunderground v.1.15,2013-11-15 15:00:00,
2013-11-15 07:10:00,44.5,44.5,30.08,NW,321,0.0,0.0,100,0.00,,,0.00,Wunderground v.1.15,2013-11-15 15:10:00,
2013-11-15 07:20:00,44.5,44.5,30.07,NW,321,0.0,0.0,100,0.00,,,0.00,Wunderground v.1.15,2013-11-15 15:20:00,
2013-11-15 07:30:00,44.5,44.5,30.07,NW,321,0.0,0.0,100,0.00,,,0.00,Wunderground v.1.15,2013-11-15 15:30:00,
2013-11-15 07:40:00,44.5,44.5,30.07,NW,321,0.0,0.0,100,0.00,,,0.00,Wunderground v.1.15,2013-11-15 15:40:00,
2013-11-15 07:50:00,44.2,44.2,30.07,NW,321,0.0,0.0,100,0.00,,,0.00,Wunderground v.1.15,2013-11-15 15:50:00,
2013-11-15 08:00:00,44.3,44.3,30.07,WNW,302,0.0,0.0,100,0.00,,,0.00,Wunderground v.1.15,2013-11-15 16:00:00,
2013-11-15 08:10:00,44.3,44.3,30.07,WNW,302,0.0,0.0,100,0.00,,,0.00,Wunderground v.1.15,2013-11-15 16:10:00,
2013-11-15 08:20:00,44.4,44.4,30.07,WNW,302,0.0,0.0,100,0.00,,,0.00,Wunderground v.1.15,2013-11-15 16:20:00,
2013-11-15 08:30:00,44.4,44.4,30.07,WNW,302,0.0,0.0,100,0.00,,,0.00,Wunderground v.1.15,2013-11-15 16:30:00,
2013-11-15 08:40:00,44.5,44.5,30.06,WNW,302,0.0,0.0,100,0.00,,,0.00,Wunderground v.1.15,2013-11-15 16:40:00,
2013-11-15 08:50:00,44.4,44.1,30.05,SSE,157,0.0,0.0,99,0.00,,,0.00,Wunderground v.1.15,2013-11-15 16:50:00,
2013-11-15 09:01:00,44.8,44.8,30.05,SE,136,1.0,1.0,100,0.00,,,0.00,Wunderground v.1.15,2013-11-15 17:01:00,
2013-11-15 09:10:00,44.7,44.4,30.06,SE,140,0.0,1.0,99,0.00,,,0.00,Wunderground v.1.15,2013-11-15 17:10:00,
2013-11-15 09:20:00,45.0,44.5,30.07,North,355,0.0,0.0,98,0.00,,,0.00,Wunderground v.1.15,2013-11-15 17:20:00,
2013-11-15 09:30:00,45.1,44.6,30.06,North,355,0.0,0.0,98,0.00,,,0.00,Wunderground v.1.15,2013-11-15 17:30:00,
2013-11-15 09:40:00,45.2,44.7,30.05,North,355,0.0,0.0,98,0.00,,,0.00,Wunderground v.1.15,2013-11-15 17:40:00,
2013-11-15 09:50:00,45.5,45.0,30.05,North,355,0.0,0.0,98,0.00,,,0.00,Wunderground v.1.15,2013-11-15 17:50:00,
2013-11-15 10:00:00,45.4,44.3,30.05,North,355,0.0,0.0,96,0.00,,,0.00,Wunderground v.1.15,2013-11-15 18:00:00,
2013-11-15 10:10:00,45.4,44.3,30.05,WNW,301,0.0,0.0,96,0.00,,,0.00,Wunderground v.1.15,2013-11-15 18:10:00,
2013-11-15 10:20:00,45.5,44.2,30.05,NW,315,0.0,1.0,95,0.00,,,0.00,Wunderground v.1.15,2013-11-15 18:20:00,
2013-11-15 10:25:00,45.6,44.3,30.05,NW,315,0.0,1.0,95,0.00,,,0.00,Wunderground v.1.15,2013-11-15 18:25:00,
2013-11-15 10:35:00,46.2,45.1,30.05,SSE,161,0.0,0.0,96,0.00,,,0.00,Wunderground v.1.15,2013-11-15 18:35:00,
2013-11-15 10:40:00,46.5,45.4,30.04,SSE,161,0.0,0.0,96,0.00,,,0.00,Wunderground v.1.15,2013-11-15 18:40:00,
2013-11-15 10:50:00,46.8,45.4,30.03,SE,138,1.0,1.0,95,0.00,,,0.00,Wunderground v.1.15,2013-11-15 18:50:00,
2013-11-15 10:55:00,46.9,45.0,30.03,NNE,20,0.0,1.0,93,0.00,,,0.00,Wunderground v.1.15,2013-11-15 18:55:00,
2013-11-15 11:00:00,47.0,45.1,30.02,ESE,111,0.0,0.0,93,0.00,,,0.00,Wunderground v.1.15,2013-11-15 19:00:00,
2013-11-15 11:10:00,47.2,45.0,30.03,SSE,152,0.0,0.0,92,0.00,,,0.00,Wunderground v.1.15,2013-11-15 19:10:00,
2013-11-15 11:20:00,47.5,45.3,30.02,NNE,15,1.0,1.0,92,0.00,,,0.00,Wunderground v.1.15,2013-11-15 19:20:00,
2013-11-15 11:30:00,47.8,45.3,30.01,East,98,0.0,1.0,91,0.00,,,0.00,Wunderground v.1.15,2013-11-15 19:30:00,
2013-11-15 11:40:00,48.0,45.2,30.01,East,98,0.0,0.0,90,0.00,,,0.00,Wunderground v.1.15,2013-11-15 19:40:00,
2013-11-15 11:50:00,48.5,46.0,30.01,NNW,348,0.0,0.0,91,0.00,,,0.00,Wunderground v.1.15,2013-11-15 19:50:00,
2013-11-15 12:00:00,48.9,45.8,30.01,NNW,348,0.0,0.0,89,0.00,,,0.00,Wunderground v.1.15,2013-11-15 20:00:00,
2013-11-15 12:10:00,49.2,46.1,29.99,NNW,348,0.0,0.0,89,0.00,,,0.00,Wunderground v.1.15,2013-11-15 20:10:00,
2013-11-15 12:20:00,49.1,45.4,30.00,NNW,333,0.0,0.0,87,0.00,,,0.00,Wunderground v.1.15,2013-11-15 20:20:00,
2013-11-15 12:30:00,49.6,46.2,29.98,SE,129,0.0,0.0,88,0.00,,,0.00,Wunderground v.1.15,2013-11-15 20:30:00,
2013-11-15 12:40:00,49.8,45.5,29.98,NE,38,1.0,1.0,85,0.00,,,0.00,Wunderground v.1.15,2013-11-15 20:40:00,
2013-11-15 12:50:00,49.9,45.6,29.98,North,355,0.0,0.0,85,0.00,,,0.00,Wunderground v.1.15,2013-11-15 20:50:00,
2013-11-15 13:00:00,50.0,45.7,29.97,North,355,0.0,0.0,85,0.00,,,0.00,Wunderground v.1.15,2013-11-15 21:00:00,
2013-11-15 13:10:00,50.2,46.2,29.97,North,355,0.0,0.0,86,0.00,,,0.00,Wunderground v.1.15,2013-11-15 21:10:00,
2013-11-15 13:20:00,50.1,45.5,29.97,North,355,0.0,0.0,84,0.00,,,0.00,Wunderground v.1.15,2013-11-15 21:20:00,
2013-11-15 13:30:00,50.1,46.1,29.96,NW,319,0.0,0.0,86,0.00,,,0.00,Wunderground v.1.15,2013-11-15 21:30:00,
2013-11-15 13:40:00,50.1,45.5,29.95,NW,319,0.0,0.0,84,0.00,,,0.00,Wunderground v.1.15,2013-11-15 21:40:00,
2013-11-15 13:50:00,50.1,46.1,29.96,NW,313,0.0,0.0,86,0.00,,,0.00,Wunderground v.1.15,2013-11-15 21:50:00,
2013-11-15 14:00:00,50.1,46.1,29.94,NW,313,0.0,0.0,86,0.00,,,0.00,Wunderground v.1.15,2013-11-15 22:00:00,
2013-11-15 14:10:00,50.4,46.1,29.93,NW,313,0.0,0.0,85,0.00,,,0.00,Wunderground v.1.15,2013-11-15 22:10:00,
2013-11-15 14:20:00,50.6,45.6,29.93,NW,306,1.0,1.0,83,0.00,,,0.00,Wunderground v.1.15,2013-11-15 22:20:00,
2013-11-15 14:30:00,50.9,46.6,29.94,North,355,0.0,0.0,85,0.00,,,0.00,Wunderground v.1.15,2013-11-15 22:30:00,
2013-11-15 14:40:00,51.0,46.0,29.91,North,355,0.0,0.0,83,0.00,,,0.00,Wunderground v.1.15,2013-11-15 22:40:00,
2013-11-15 14:50:00,50.7,47.0,29.93,NW,307,0.0,0.0,87,0.00,,,0.00,Wunderground v.1.15,2013-11-15 22:50:00,
2013-11-15 15:00:00,50.0,46.9,29.94,WNW,302,0.0,0.0,89,0.00,,,0.00,Wunderground v.1.15,2013-11-15 23:00:00,
2013-11-15 15:10:00,50.1,45.5,29.93,WNW,296,1.0,1.0,84,0.00,,,0.00,Wunderground v.1.15,2013-11-15 23:10:00,
2013-11-15 15:20:00,50.4,46.1,29.93,WNW,302,0.0,0.0,85,0.00,,,0.00,Wunderground v.1.15,2013-11-15 23:20:00,
2013-11-15 15:30:00,50.6,46.3,29.92,SW,216,0.0,0.0,85,0.00,,,0.00,Wunderground v.1.15,2013-11-15 23:30:00,
2013-11-15 15:40:00,50.5,46.2,29.91,WNW,298,0.0,0.0,85,0.00,,,0.00,Wunderground v.1.15,2013-11-15 23:40:00,
2013-11-15 15:45:00,50.5,46.8,29.92,WNW,298,0.0,0.0,87,0.00,,,0.00,Wunderground v.1.15,2013-11-15 23:45:00,
2013-11-15 15:50:00,50.2,46.8,29.92,WNW,298,0.0,0.0,88,0.00,,,0.00,Wunderground v.1.15,2013-11-15 23:50:00,
2013-11-15 16:00:00,49.5,45.5,29.91,WNW,298,0.0,0.0,86,0.00,,,0.00,Wunderground v.1.15,2013-11-16 00:00:00,
2013-11-15 16:10:00,49.0,45.6,29.91,WNW,298,0.0,0.0,88,0.00,,,0.00,Wunderground v.1.15,2013-11-16 00:10:00,
2013-11-15 16:15:00,48.9,45.5,29.90,NW,308,0.0,0.0,88,0.00,,,0.00,Wunderground v.1.15,2013-11-16 00:15:00,
2013-11-15 16:25:00,48.7,45.0,29.90,SW,233,0.0,0.0,87,0.00,,,0.00,Wunderground v.1.15,2013-11-16 00:25:00,
2013-11-15 16:35:00,48.7,45.0,29.90,WSW,241,0.0,0.0,87,0.00,,,0.00,Wunderground v.1.15,2013-11-16 00:35:00,
2013-11-15 16:40:00,48.6,45.2,29.89,West,275,1.0,2.0,88,0.00,,,0.00,Wunderground v.1.15,2013-11-16 00:40:00,
2013-11-15 16:50:00,48.6,45.2,29.91,WNW,299,1.0,1.0,88,0.00,,,0.00,Wunderground v.1.15,2013-11-16 00:50:00,
2013-11-15 17:00:00,48.6,45.2,29.90,WSW,253,1.0,3.0,88,0.00,,,0.00,Wunderground v.1.15,2013-11-16 01:00:00,
2013-11-15 17:10:00,48.6,45.2,29.90,WNW,300,2.0,2.0,88,0.00,,,0.00,Wunderground v.1.15,2013-11-16 01:10:00,
2013-11-15 17:20:00,48.5,45.1,29.91,West,269,2.0,2.0,88,0.00,,,0.00,Wunderground v.1.15,2013-11-16 01:20:00,
2013-11-15 17:30:00,48.5,44.8,29.90,West,263,2.0,6.0,87,0.00,,,0.00,Wunderground v.1.15,2013-11-16 01:30:00,
2013-11-15 17:40:00,48.3,44.6,29.90,WSW,242,2.0,2.0,87,0.00,,,0.00,Wunderground v.1.15,2013-11-16 01:40:00,
2013-11-15 17:50:00,48.0,44.6,29.89,SW,233,1.0,1.0,88,0.00,,,0.00,Wunderground v.1.15,2013-11-16 01:50:00,
2013-11-15 18:00:00,47.5,44.4,29.89,SW,232,1.0,1.0,89,0.00,,,0.00,Wunderground v.1.15,2013-11-16 02:00:00,
2013-11-15 18:10:00,47.2,44.4,29.89,WSW,256,1.0,4.0,90,0.00,,,0.00,Wunderground v.1.15,2013-11-16 02:10:00,
2013-11-15 18:15:00,47.2,44.4,29.88,WSW,248,1.0,4.0,90,0.00,,,0.00,Wunderground v.1.15,2013-11-16 02:15:00,
2013-11-15 18:25:00,47.1,44.3,29.88,SW,233,0.0,0.0,90,0.00,,,0.00,Wunderground v.1.15,2013-11-16 02:25:00,
2013-11-15 18:30:00,47.0,44.8,29.88,WSW,238,0.0,0.0,92,0.00,,,0.00,Wunderground v.1.15,2013-11-16 02:30:00,
2013-11-15 18:40:00,46.8,44.6,29.88,WSW,241,0.0,0.0,92,0.00,,,0.00,Wunderground v.1.15,2013-11-16 02:40:00,
2013-11-15 18:50:00,46.7,43.9,29.87,WSW,241,0.0,0.0,90,0.00,,,0.00,Wunderground v.1.15,2013-11-16 02:50:00,
2013-11-15 19:00:00,46.8,44.6,29.86,SSE,152,0.0,0.0,92,0.00,,,0.00,Wunderground v.1.15,2013-11-16 03:00:00,
2013-11-15 19:05:00,46.6,43.8,29.86,South,190,0.0,0.0,90,0.00,,,0.00,Wunderground v.1.15,2013-11-16 03:05:00,
2013-11-15 19:15:00,46.4,43.9,29.86,South,190,0.0,0.0,91,0.00,,,0.00,Wunderground v.1.15,2013-11-16 03:15:00,
2013-11-15 19:25:00,46.4,43.6,29.85,SE,142,0.0,0.0,90,0.00,,,0.00,Wunderground v.1.15,2013-11-16 03:25:00,
2013-11-15 19:35:00,46.4,44.2,29.84,SE,142,0.0,0.0,92,0.00,,,0.00,Wunderground v.1.15,2013-11-16 03:35:00,
2013-11-15 19:40:00,46.3,44.1,29.84,SE,142,0.0,0.0,92,0.00,,,0.00,Wunderground v.1.15,2013-11-16 03:40:00,
2013-11-15 19:50:00,46.3,43.8,29.84,SE,131,1.0,1.0,91,0.00,,,0.00,Wunderground v.1.15,2013-11-16 03:50:00,
2013-11-15 19:55:00,46.4,43.9,29.84,SE,138,1.0,1.0,91,0.00,,,0.00,Wunderground v.1.15,2013-11-16 03:55:00,
2013-11-15 20:00:00,46.4,43.9,29.84,SE,142,1.0,3.0,91,0.00,,,0.00,Wunderground v.1.15,2013-11-16 04:00:00,
2013-11-15 20:15:00,46.4,43.9,29.82,SE,136,2.0,2.0,91,0.00,,,0.00,Wunderground v.1.15,2013-11-16 04:15:00,
2013-11-15 20:25:00,46.3,43.8,29.82,SE,126,2.0,2.0,91,0.00,,,0.00,Wunderground v.1.15,2013-11-16 04:25:00,
2013-11-15 20:35:00,46.4,43.9,29.83,SE,138,1.0,2.0,91,0.00,,,0.00,Wunderground v.1.15,2013-11-16 04:35:00,
2013-11-15 20:40:00,46.4,44.2,29.83,SE,136,1.0,2.0,92,0.00,,,0.00,Wunderground v.1.15,2013-11-16 04:40:00,
2013-11-15 20:50:00,46.5,44.0,29.83,SE,133,1.0,1.0,91,0.00,,,0.00,Wunderground v.1.15,2013-11-16 04:50:00,
2013-11-15 21:00:00,46.4,44.2,29.83,SSE,150,1.0,1.0,92,0.00,,,0.00,Wunderground v.1.15,2013-11-16 05:00:00,
2013-11-15 21:05:00,46.4,44.2,29.83,SE,135,1.0,2.0,92,0.00,,,0.00,Wunderground v.1.15,2013-11-16 05:05:00,
2013-11-15 21:10:00,46.4,44.2,29.82,SE,137,1.0,1.0,92,0.00,,,0.00,Wunderground v.1.15,2013-11-16 05:10:00,
2013-11-15 21:15:00,46.5,44.0,29.82,ENE,63,1.0,1.0,91,0.00,,,0.00,Wunderground v.1.15,2013-11-16 05:15:00,
2013-11-15 21:25:00,46.7,44.5,29.82,SE,129,0.0,0.0,92,0.00,,,0.00,Wunderground v.1.15,2013-11-16 05:25:00,
2013-11-15 21:30:00,46.7,44.5,29.81,ESE,104,1.0,2.0,92,0.00,,,0.00,Wunderground v.1.15,2013-11-16 05:30:00,
2013-11-15 21:35:00,46.7,44.2,29.81,ESE,117,2.0,3.0,91,0.00,,,0.00,Wunderground v.1.15,2013-11-16 05:35:00,
2013-11-15 21:40:00,46.7,44.5,29.81,SE,136,2.0,2.0,92,0.00,,,0.00,Wunderground v.1.15,2013-11-16 05:40:00,
2013-11-15 21:50:00,46.8,44.9,29.80,SSE,154,1.0,2.0,93,0.00,,,0.00,Wunderground v.1.15,2013-11-16 05:50:00,
2013-11-15 21:55:00,46.7,44.8,29.80,ESE,111,2.0,2.0,93,0.00,,,0.00,Wunderground v.1.15,2013-11-16 05:55:00,
2013-11-15 22:00:00,46.7,45.1,29.80,WSW,248,2.0,2.0,94,0.00,,,0.00,Wunderground v.1.15,2013-11-16 06:00:00,
2013-11-15 22:10:00,46.4,45.0,29.80,SSE,157,0.0,0.0,95,0.00,,,0.00,Wunderground v.1.15,2013-11-16 06:10:00,
2013-11-15 22:20:00,46.4,45.3,29.80,SE,140,0.0,0.0,96,0.00,,,0.00,Wunderground v.1.15,2013-11-16 06:20:00,
2013-11-15 22:30:00,46.4,45.3,29.79,ESE,113,1.0,1.0,96,0.00,,,0.01,Wunderground v.1.15,2013-11-16 06:30:00,
2013-11-15 22:40:00,46.5,45.7,29.80,ESE,116,0.0,0.0,97,0.00,,,0.01,Wunderground v.1.15,2013-11-16 06:40:00,
2013-11-15 22:45:00,46.6,45.8,29.80,East,90,0.0,0.0,97,0.00,,,0.01,Wunderground v.1.15,2013-11-16 06:45:00,
2013-11-15 22:55:00,46.7,46.2,29.80,East,80,0.0,0.0,98,0.00,,,0.01,Wunderground v.1.15,2013-11-16 06:55:00,
2013-11-15 23:00:00,46.7,46.2,29.80,SE,132,0.0,2.0,98,0.00,,,0.01,Wunderground v.1.15,2013-11-16 07:00:00,
2013-11-15 23:10:00,46.8,46.3,29.79,ENE,76,1.0,1.0,98,0.00,,,0.01,Wunderground v.1.15,2013-11-16 07:10:00,
2013-11-15 23:20:00,46.8,46.3,29.79,ESE,104,1.0,1.0,98,0.00,,,0.02,Wunderground v.1.15,2013-11-16 07:20:00,
2013-11-15 23:30:00,46.8,46.3,29.79,NE,34,0.0,0.0,98,0.00,,,0.02,Wunderground v.1.15,2013-11-16 07:30:00,
2013-11-15 23:40:00,46.9,46.4,29.78,ESE,123,1.0,2.0,98,0.00,,,0.03,Wunderground v.1.15,2013-11-16 07:40:00,
2013-11-15 23:50:00,47.0,46.5,29.77,ENE,71,2.0,2.0,98,0.00,,,0.03,Wunderground v.1.15,2013-11-16 07:50:00,
2013-11-15 23:55:00,47.0,46.5,29.77,East,87,2.0,2.0,98,0.00,,,0.03,Wunderground v.1.15,2013-11-16 07:55:00,